KGNV 220353Z AUTO 00000KT 10SM CLR 11/10 A3022 RMK AO2 SLP233 T01110100 $